sensor_id;sensor_type;location;lat;lon;timestamp;P1;durP1;ratioP1;P2;durP2;ratioP2
4831;SDS011;2430;51.322;7.864;2023-06-22T00:01:05;9.27;;;8.33;;
4831;SDS011;2430;51.322;7.864;2023-06-22T00:03:33;10.30;;;8.27;;
4831;SDS011;2430;51.322;7.864;2023-06-22T00:05:59;17.50;;;8.40;;
4831;SDS011;2430;51.322;7.864;2023-06-22T00:08:26;9.40;;;8.37;;
4831;SDS011;2430;51.322;7.864;2023-06-22T00:10:52;15.60;;;9.17;;
4831;SDS011;2430;51.322;7.864;2023-06-22T00:13:18;17.03;;;9.60;;
4831;SDS011;2430;51.322;7.864;2023-06-22T00:15:45;10.47;;;9.27;;
4831;SDS011;2430;51.322;7.864;2023-06-22T00:18:11;11.13;;;9.83;;
4831;SDS011;2430;51.322;7.864;2023-06-22T00:20:39;11.73;;;8.87;;
4831;SDS011;2430;51.322;7.864;2023-06-22T00:23:06;11.10;;;9.77;;
4831;SDS011;2430;51.322;7.864;2023-06-22T00:25:33;12.23;;;10.93;;
4831;SDS011;2430;51.322;7.864;2023-06-22T00:27:59;13.90;;;10.80;;
4831;SDS011;2430;51.322;7.864;2023-06-22T00:30:26;11.37;;;9.77;;
4831;SDS011;2430;51.322;7.864;2023-06-22T00:32:52;12.63;;;9.73;;
4831;SDS011;2430;51.322;7.864;2023-06-22T00:35:18;14.40;;;10.03;;
4831;SDS011;2430;51.322;7.864;2023-06-22T00:37:46;9.73;;;8.60;;
4831;SDS011;2430;51.322;7.864;2023-06-22T00:40:12;9.70;;;8.37;;
4831;SDS011;2430;51.322;7.864;2023-06-22T00:42:39;9.63;;;8.63;;
4831;SDS011;2430;51.322;7.864;2023-06-22T00:45:06;10.70;;;9.60;;
4831;SDS011;2430;51.322;7.864;2023-06-22T00:47:33;10.23;;;8.70;;
4831;SDS011;2430;51.322;7.864;2023-06-22T00:50:00;15.20;;;9.97;;
4831;SDS011;2430;51.322;7.864;2023-06-22T00:52:26;11.63;;;9.37;;
4831;SDS011;2430;51.322;7.864;2023-06-22T00:54:55;10.03;;;9.03;;
4831;SDS011;2430;51.322;7.864;2023-06-22T00:57:22;9.93;;;8.07;;
4831;SDS011;2430;51.322;7.864;2023-06-22T00:59:50;11.13;;;8.23;;
4831;SDS011;2430;51.322;7.864;2023-06-22T01:02:17;17.80;;;8.30;;
4831;SDS011;2430;51.322;7.864;2023-06-22T01:04:43;9.70;;;8.47;;
4831;SDS011;2430;51.322;7.864;2023-06-22T01:07:10;11.53;;;8.53;;
4831;SDS011;2430;51.322;7.864;2023-06-22T01:09:49;13.23;;;9.50;;
4831;SDS011;2430;51.322;7.864;2023-06-22T01:12:19;9.80;;;8.20;;
4831;SDS011;2430;51.322;7.864;2023-06-22T01:14:47;14.73;;;8.60;;
4831;SDS011;2430;51.322;7.864;2023-06-22T01:17:17;10.20;;;8.10;;
4831;SDS011;2430;51.322;7.864;2023-06-22T01:19:45;11.00;;;8.67;;
4831;SDS011;2430;51.322;7.864;2023-06-22T01:22:12;13.87;;;8.80;;
4831;SDS011;2430;51.322;7.864;2023-06-22T01:24:41;14.60;;;9.87;;
4831;SDS011;2430;51.322;7.864;2023-06-22T01:27:13;13.20;;;8.50;;
4831;SDS011;2430;51.322;7.864;2023-06-22T01:29:48;12.93;;;8.30;;
4831;SDS011;2430;51.322;7.864;2023-06-22T01:32:15;13.00;;;9.07;;
4831;SDS011;2430;51.322;7.864;2023-06-22T01:34:42;16.10;;;8.93;;
4831;SDS011;2430;51.322;7.864;2023-06-22T01:37:08;11.10;;;8.27;;
4831;SDS011;2430;51.322;7.864;2023-06-22T01:39:35;11.13;;;8.70;;
4831;SDS011;2430;51.322;7.864;2023-06-22T01:42:02;12.90;;;9.67;;
4831;SDS011;2430;51.322;7.864;2023-06-22T01:44:30;15.63;;;10.30;;
4831;SDS011;2430;51.322;7.864;2023-06-22T01:46:58;11.97;;;8.90;;
4831;SDS011;2430;51.322;7.864;2023-06-22T01:49:25;13.97;;;10.03;;
4831;SDS011;2430;51.322;7.864;2023-06-22T01:51:52;12.77;;;9.80;;
4831;SDS011;2430;51.322;7.864;2023-06-22T01:54:19;11.27;;;10.17;;
4831;SDS011;2430;51.322;7.864;2023-06-22T01:56:45;11.70;;;10.13;;
4831;SDS011;2430;51.322;7.864;2023-06-22T01:59:14;12.03;;;9.57;;
4831;SDS011;2430;51.322;7.864;2023-06-22T02:04:27;12.57;;;10.43;;
4831;SDS011;2430;51.322;7.864;2023-06-22T02:06:58;11.27;;;10.00;;
4831;SDS011;2430;51.322;7.864;2023-06-22T02:09:25;11.23;;;10.10;;
4831;SDS011;2430;51.322;7.864;2023-06-22T02:11:55;11.10;;;9.90;;
4831;SDS011;2430;51.322;7.864;2023-06-22T02:14:22;16.80;;;10.30;;
4831;SDS011;2430;51.322;7.864;2023-06-22T02:16:49;12.13;;;9.00;;
4831;SDS011;2430;51.322;7.864;2023-06-22T02:19:16;12.33;;;8.03;;
4831;SDS011;2430;51.322;7.864;2023-06-22T02:21:45;8.23;;;7.00;;
4831;SDS011;2430;51.322;7.864;2023-06-22T02:24:11;10.97;;;7.30;;
4831;SDS011;2430;51.322;7.864;2023-06-22T02:26:38;9.40;;;7.60;;
4831;SDS011;2430;51.322;7.864;2023-06-22T02:29:07;11.73;;;7.33;;
4831;SDS011;2430;51.322;7.864;2023-06-22T02:31:34;8.40;;;7.47;;
4831;SDS011;2430;51.322;7.864;2023-06-22T02:34:00;9.20;;;8.10;;
4831;SDS011;2430;51.322;7.864;2023-06-22T02:36:27;9.20;;;7.27;;
4831;SDS011;2430;51.322;7.864;2023-06-22T02:38:57;13.87;;;8.80;;
4831;SDS011;2430;51.322;7.864;2023-06-22T02:41:24;12.50;;;10.13;;
4831;SDS011;2430;51.322;7.864;2023-06-22T02:43:50;9.93;;;8.93;;
4831;SDS011;2430;51.322;7.864;2023-06-22T02:46:17;10.67;;;9.57;;
4831;SDS011;2430;51.322;7.864;2023-06-22T02:48:44;16.17;;;9.90;;
4831;SDS011;2430;51.322;7.864;2023-06-22T02:51:10;15.93;;;10.50;;
4831;SDS011;2430;51.322;7.864;2023-06-22T02:53:37;19.63;;;9.83;;
4831;SDS011;2430;51.322;7.864;2023-06-22T02:56:05;14.63;;;10.43;;
4831;SDS011;2430;51.322;7.864;2023-06-22T02:58:32;15.33;;;10.23;;
4831;SDS011;2430;51.322;7.864;2023-06-22T03:01:04;13.43;;;9.90;;
4831;SDS011;2430;51.322;7.864;2023-06-22T03:03:30;11.20;;;9.93;;
4831;SDS011;2430;51.322;7.864;2023-06-22T03:05:57;17.27;;;10.40;;
4831;SDS011;2430;51.322;7.864;2023-06-22T03:08:23;14.93;;;9.37;;
4831;SDS011;2430;51.322;7.864;2023-06-22T03:10:50;11.17;;;8.37;;
4831;SDS011;2430;51.322;7.864;2023-06-22T03:13:18;11.03;;;9.60;;
4831;SDS011;2430;51.322;7.864;2023-06-22T03:15:44;9.53;;;8.63;;
4831;SDS011;2430;51.322;7.864;2023-06-22T03:18:11;16.50;;;8.90;;
4831;SDS011;2430;51.322;7.864;2023-06-22T03:20:38;12.10;;;9.73;;
4831;SDS011;2430;51.322;7.864;2023-06-22T03:23:04;11.40;;;9.63;;
4831;SDS011;2430;51.322;7.864;2023-06-22T03:25:30;12.73;;;8.33;;
4831;SDS011;2430;51.322;7.864;2023-06-22T03:27:58;11.47;;;9.60;;
4831;SDS011;2430;51.322;7.864;2023-06-22T03:30:26;10.40;;;8.97;;
4831;SDS011;2430;51.322;7.864;2023-06-22T03:32:53;10.43;;;9.43;;
4831;SDS011;2430;51.322;7.864;2023-06-22T03:35:19;12.30;;;9.63;;
4831;SDS011;2430;51.322;7.864;2023-06-22T03:37:45;12.80;;;10.00;;
4831;SDS011;2430;51.322;7.864;2023-06-22T03:40:12;22.80;;;11.00;;
4831;SDS011;2430;51.322;7.864;2023-06-22T03:42:38;11.50;;;10.30;;
4831;SDS011;2430;51.322;7.864;2023-06-22T03:45:05;11.37;;;9.80;;
4831;SDS011;2430;51.322;7.864;2023-06-22T03:47:36;10.77;;;9.43;;
4831;SDS011;2430;51.322;7.864;2023-06-22T03:50:03;12.80;;;9.80;;
4831;SDS011;2430;51.322;7.864;2023-06-22T03:52:31;14.03;;;10.37;;
4831;SDS011;2430;51.322;7.864;2023-06-22T03:54:57;16.97;;;10.43;;
4831;SDS011;2430;51.322;7.864;2023-06-22T03:57:24;11.37;;;8.70;;
4831;SDS011;2430;51.322;7.864;2023-06-22T03:59:51;17.23;;;10.10;;
4831;SDS011;2430;51.322;7.864;2023-06-22T04:02:17;10.73;;;9.13;;
4831;SDS011;2430;51.322;7.864;2023-06-22T04:04:45;13.73;;;9.87;;
4831;SDS011;2430;51.322;7.864;2023-06-22T04:07:12;11.07;;;9.03;;
4831;SDS011;2430;51.322;7.864;2023-06-22T04:09:39;17.77;;;10.57;;
4831;SDS011;2430;51.322;7.864;2023-06-22T04:12:05;17.70;;;9.90;;
4831;SDS011;2430;51.322;7.864;2023-06-22T04:14:32;14.27;;;10.40;;
4831;SDS011;2430;51.322;7.864;2023-06-22T04:16:58;13.00;;;9.67;;
4831;SDS011;2430;51.322;7.864;2023-06-22T04:19:25;9.67;;;8.67;;
4831;SDS011;2430;51.322;7.864;2023-06-22T04:21:53;16.80;;;9.27;;
4831;SDS011;2430;51.322;7.864;2023-06-22T04:24:20;11.17;;;9.30;;
4831;SDS011;2430;51.322;7.864;2023-06-22T04:26:46;13.63;;;10.77;;
4831;SDS011;2430;51.322;7.864;2023-06-22T04:29:16;12.73;;;10.60;;
4831;SDS011;2430;51.322;7.864;2023-06-22T04:31:42;14.27;;;10.57;;
4831;SDS011;2430;51.322;7.864;2023-06-22T04:34:09;16.40;;;10.23;;
4831;SDS011;2430;51.322;7.864;2023-06-22T04:36:36;15.00;;;10.97;;
4831;SDS011;2430;51.322;7.864;2023-06-22T04:39:06;15.23;;;12.00;;
4831;SDS011;2430;51.322;7.864;2023-06-22T04:41:34;14.73;;;11.00;;
4831;SDS011;2430;51.322;7.864;2023-06-22T04:44:07;12.43;;;10.17;;
4831;SDS011;2430;51.322;7.864;2023-06-22T04:46:33;12.00;;;9.67;;
4831;SDS011;2430;51.322;7.864;2023-06-22T04:49:03;17.43;;;10.50;;
4831;SDS011;2430;51.322;7.864;2023-06-22T04:51:31;14.43;;;11.07;;
4831;SDS011;2430;51.322;7.864;2023-06-22T04:53:57;20.67;;;12.70;;
4831;SDS011;2430;51.322;7.864;2023-06-22T04:56:27;14.00;;;12.57;;
4831;SDS011;2430;51.322;7.864;2023-06-22T04:58:54;16.00;;;14.00;;
4831;SDS011;2430;51.322;7.864;2023-06-22T05:01:22;17.00;;;12.23;;
4831;SDS011;2430;51.322;7.864;2023-06-22T05:03:48;14.00;;;11.73;;
4831;SDS011;2430;51.322;7.864;2023-06-22T05:06:15;16.07;;;12.87;;
4831;SDS011;2430;51.322;7.864;2023-06-22T05:08:42;15.10;;;13.33;;
4831;SDS011;2430;51.322;7.864;2023-06-22T05:11:09;15.07;;;13.57;;
4831;SDS011;2430;51.322;7.864;2023-06-22T05:13:37;17.07;;;13.53;;
4831;SDS011;2430;51.322;7.864;2023-06-22T05:16:03;15.10;;;13.10;;
4831;SDS011;2430;51.322;7.864;2023-06-22T05:18:31;17.70;;;12.53;;
4831;SDS011;2430;51.322;7.864;2023-06-22T05:20:57;12.97;;;10.90;;
4831;SDS011;2430;51.322;7.864;2023-06-22T05:23:23;17.80;;;11.27;;
4831;SDS011;2430;51.322;7.864;2023-06-22T05:25:50;13.90;;;11.20;;
4831;SDS011;2430;51.322;7.864;2023-06-22T05:28:16;15.20;;;11.13;;
4831;SDS011;2430;51.322;7.864;2023-06-22T05:30:49;13.20;;;11.67;;
4831;SDS011;2430;51.322;7.864;2023-06-22T05:33:15;13.23;;;11.83;;
4831;SDS011;2430;51.322;7.864;2023-06-22T05:35:41;13.17;;;11.77;;
4831;SDS011;2430;51.322;7.864;2023-06-22T05:38:08;12.43;;;9.93;;
4831;SDS011;2430;51.322;7.864;2023-06-22T05:40:34;13.37;;;11.80;;
4831;SDS011;2430;51.322;7.864;2023-06-22T05:43:00;15.83;;;13.40;;
4831;SDS011;2430;51.322;7.864;2023-06-22T05:45:26;13.63;;;12.20;;
4831;SDS011;2430;51.322;7.864;2023-06-22T05:47:54;13.30;;;11.90;;
4831;SDS011;2430;51.322;7.864;2023-06-22T05:50:20;16.30;;;11.83;;
4831;SDS011;2430;51.322;7.864;2023-06-22T05:52:47;14.90;;;12.30;;
4831;SDS011;2430;51.322;7.864;2023-06-22T05:55:13;14.10;;;12.17;;
4831;SDS011;2430;51.322;7.864;2023-06-22T05:57:40;14.67;;;11.47;;
4831;SDS011;2430;51.322;7.864;2023-06-22T06:00:07;22.10;;;14.20;;
4831;SDS011;2430;51.322;7.864;2023-06-22T06:02:35;15.83;;;12.33;;
4831;SDS011;2430;51.322;7.864;2023-06-22T06:05:03;13.77;;;11.77;;
4831;SDS011;2430;51.322;7.864;2023-06-22T06:07:30;16.10;;;13.93;;
4831;SDS011;2430;51.322;7.864;2023-06-22T06:09:59;12.27;;;10.97;;
4831;SDS011;2430;51.322;7.864;2023-06-22T06:12:25;15.03;;;11.57;;
4831;SDS011;2430;51.322;7.864;2023-06-22T06:14:52;14.33;;;12.73;;
4831;SDS011;2430;51.322;7.864;2023-06-22T06:17:20;13.40;;;12.00;;
4831;SDS011;2430;51.322;7.864;2023-06-22T06:19:46;13.93;;;12.20;;
4831;SDS011;2430;51.322;7.864;2023-06-22T06:22:14;13.90;;;12.03;;
4831;SDS011;2430;51.322;7.864;2023-06-22T06:24:40;16.33;;;11.77;;
4831;SDS011;2430;51.322;7.864;2023-06-22T06:27:06;14.80;;;12.20;;
4831;SDS011;2430;51.322;7.864;2023-06-22T06:29:33;19.63;;;12.73;;
4831;SDS011;2430;51.322;7.864;2023-06-22T06:31:59;13.83;;;12.27;;
4831;SDS011;2430;51.322;7.864;2023-06-22T06:34:26;16.97;;;11.90;;
4831;SDS011;2430;51.322;7.864;2023-06-22T06:36:52;16.00;;;12.97;;
4831;SDS011;2430;51.322;7.864;2023-06-22T06:39:19;12.90;;;11.60;;
4831;SDS011;2430;51.322;7.864;2023-06-22T06:41:46;16.60;;;12.37;;
4831;SDS011;2430;51.322;7.864;2023-06-22T06:44:12;14.67;;;12.40;;
4831;SDS011;2430;51.322;7.864;2023-06-22T06:46:39;15.67;;;12.03;;
4831;SDS011;2430;51.322;7.864;2023-06-22T06:49:06;12.20;;;11.00;;
4831;SDS011;2430;51.322;7.864;2023-06-22T06:51:33;13.57;;;11.20;;
4831;SDS011;2430;51.322;7.864;2023-06-22T06:53:59;13.33;;;9.50;;
4831;SDS011;2430;51.322;7.864;2023-06-22T06:56:27;11.70;;;10.40;;
4831;SDS011;2430;51.322;7.864;2023-06-22T06:58:56;12.97;;;10.80;;
4831;SDS011;2430;51.322;7.864;2023-06-22T07:01:26;11.63;;;10.43;;
4831;SDS011;2430;51.322;7.864;2023-06-22T07:03:58;13.40;;;9.77;;
4831;SDS011;2430;51.322;7.864;2023-06-22T07:06:25;11.80;;;10.53;;
4831;SDS011;2430;51.322;7.864;2023-06-22T07:08:54;13.23;;;10.17;;
4831;SDS011;2430;51.322;7.864;2023-06-22T07:11:20;12.53;;;10.80;;
4831;SDS011;2430;51.322;7.864;2023-06-22T07:13:48;12.50;;;10.53;;
4831;SDS011;2430;51.322;7.864;2023-06-22T07:16:15;15.17;;;11.23;;
4831;SDS011;2430;51.322;7.864;2023-06-22T07:18:42;11.50;;;10.20;;
4831;SDS011;2430;51.322;7.864;2023-06-22T07:21:08;9.87;;;8.87;;
4831;SDS011;2430;51.322;7.864;2023-06-22T07:23:34;10.33;;;9.27;;
4831;SDS011;2430;51.322;7.864;2023-06-22T07:26:01;9.90;;;8.90;;
4831;SDS011;2430;51.322;7.864;2023-06-22T07:28:28;10.37;;;9.27;;
4831;SDS011;2430;51.322;7.864;2023-06-22T07:30:57;11.83;;;9.40;;
4831;SDS011;2430;51.322;7.864;2023-06-22T07:33:23;13.60;;;9.40;;
4831;SDS011;2430;51.322;7.864;2023-06-22T07:35:50;15.50;;;8.80;;
4831;SDS011;2430;51.322;7.864;2023-06-22T07:38:17;10.57;;;9.33;;
4831;SDS011;2430;51.322;7.864;2023-06-22T07:40:43;9.17;;;8.17;;
4831;SDS011;2430;51.322;7.864;2023-06-22T07:43:10;11.70;;;9.30;;
4831;SDS011;2430;51.322;7.864;2023-06-22T07:45:37;8.30;;;7.50;;
4831;SDS011;2430;51.322;7.864;2023-06-22T07:48:06;9.77;;;7.40;;
4831;SDS011;2430;51.322;7.864;2023-06-22T07:50:32;9.57;;;8.50;;
4831;SDS011;2430;51.322;7.864;2023-06-22T07:52:59;13.53;;;8.80;;
4831;SDS011;2430;51.322;7.864;2023-06-22T07:55:25;7.83;;;7.03;;
4831;SDS011;2430;51.322;7.864;2023-06-22T07:57:51;8.70;;;7.60;;
4831;SDS011;2430;51.322;7.864;2023-06-22T08:00:18;9.90;;;6.63;;
4831;SDS011;2430;51.322;7.864;2023-06-22T08:02:45;8.20;;;7.40;;
4831;SDS011;2430;51.322;7.864;2023-06-22T08:05:13;6.73;;;6.00;;
4831;SDS011;2430;51.322;7.864;2023-06-22T08:07:40;6.80;;;6.10;;
4831;SDS011;2430;51.322;7.864;2023-06-22T08:10:08;8.73;;;6.10;;
4831;SDS011;2430;51.322;7.864;2023-06-22T08:12:36;8.77;;;6.70;;
4831;SDS011;2430;51.322;7.864;2023-06-22T08:15:02;6.93;;;5.93;;
4831;SDS011;2430;51.322;7.864;2023-06-22T08:17:29;8.97;;;6.20;;
4831;SDS011;2430;51.322;7.864;2023-06-22T08:19:56;7.50;;;5.73;;
4831;SDS011;2430;51.322;7.864;2023-06-22T08:22:23;6.87;;;6.17;;
4831;SDS011;2430;51.322;7.864;2023-06-22T08:24:50;7.90;;;5.73;;
4831;SDS011;2430;51.322;7.864;2023-06-22T08:27:16;7.13;;;5.57;;
4831;SDS011;2430;51.322;7.864;2023-06-22T08:29:46;5.87;;;5.27;;
4831;SDS011;2430;51.322;7.864;2023-06-22T08:32:12;5.80;;;5.20;;
4831;SDS011;2430;51.322;7.864;2023-06-22T08:34:38;7.07;;;5.30;;
4831;SDS011;2430;51.322;7.864;2023-06-22T08:37:07;7.87;;;5.00;;
4831;SDS011;2430;51.322;7.864;2023-06-22T08:39:35;7.30;;;5.90;;
4831;SDS011;2430;51.322;7.864;2023-06-22T08:42:01;6.00;;;5.40;;
4831;SDS011;2430;51.322;7.864;2023-06-22T08:44:27;7.90;;;5.30;;
4831;SDS011;2430;51.322;7.864;2023-06-22T08:46:54;6.60;;;5.47;;
4831;SDS011;2430;51.322;7.864;2023-06-22T08:49:20;6.97;;;5.63;;
4831;SDS011;2430;51.322;7.864;2023-06-22T08:51:47;7.40;;;5.30;;
4831;SDS011;2430;51.322;7.864;2023-06-22T08:54:14;5.10;;;4.60;;
4831;SDS011;2430;51.322;7.864;2023-06-22T08:56:42;5.77;;;4.97;;
4831;SDS011;2430;51.322;7.864;2023-06-22T08:59:09;7.10;;;5.13;;
4831;SDS011;2430;51.322;7.864;2023-06-22T09:01:35;6.90;;;5.40;;
4831;SDS011;2430;51.322;7.864;2023-06-22T09:04:02;5.87;;;5.23;;
4831;SDS011;2430;51.322;7.864;2023-06-22T09:06:31;5.13;;;4.63;;
4831;SDS011;2430;51.322;7.864;2023-06-22T09:08:57;6.43;;;4.90;;
4831;SDS011;2430;51.322;7.864;2023-06-22T09:11:25;5.13;;;4.63;;
4831;SDS011;2430;51.322;7.864;2023-06-22T09:13:52;5.43;;;4.73;;
4831;SDS011;2430;51.322;7.864;2023-06-22T09:16:19;5.10;;;4.17;;
4831;SDS011;2430;51.322;7.864;2023-06-22T09:18:46;6.10;;;4.80;;
4831;SDS011;2430;51.322;7.864;2023-06-22T09:21:12;5.30;;;4.20;;
4831;SDS011;2430;51.322;7.864;2023-06-22T09:23:39;5.37;;;4.50;;
4831;SDS011;2430;51.322;7.864;2023-06-22T09:26:05;5.57;;;5.07;;
4831;SDS011;2430;51.322;7.864;2023-06-22T09:28:31;6.73;;;4.80;;
4831;SDS011;2430;51.322;7.864;2023-06-22T09:30:59;4.77;;;4.27;;
4831;SDS011;2430;51.322;7.864;2023-06-22T09:33:26;5.50;;;5.00;;
4831;SDS011;2430;51.322;7.864;2023-06-22T09:35:52;5.63;;;4.80;;
4831;SDS011;2430;51.322;7.864;2023-06-22T09:38:18;6.03;;;5.43;;
4831;SDS011;2430;51.322;7.864;2023-06-22T09:40:45;5.57;;;5.07;;
4831;SDS011;2430;51.322;7.864;2023-06-22T09:43:11;8.97;;;6.30;;
4831;SDS011;2430;51.322;7.864;2023-06-22T09:45:37;12.10;;;6.80;;
4831;SDS011;2430;51.322;7.864;2023-06-22T09:48:05;16.10;;;8.27;;
4831;SDS011;2430;51.322;7.864;2023-06-22T09:50:31;5.40;;;4.70;;
4831;SDS011;2430;51.322;7.864;2023-06-22T09:52:58;6.17;;;5.40;;
4831;SDS011;2430;51.322;7.864;2023-06-22T09:55:24;14.93;;;8.47;;
4831;SDS011;2430;51.322;7.864;2023-06-22T09:57:50;5.60;;;5.00;;
4831;SDS011;2430;51.322;7.864;2023-06-22T10:00:17;5.97;;;5.37;;
4831;SDS011;2430;51.322;7.864;2023-06-22T10:02:44;6.90;;;5.80;;
4831;SDS011;2430;51.322;7.864;2023-06-22T10:05:11;7.97;;;6.50;;
4831;SDS011;2430;51.322;7.864;2023-06-22T10:07:40;8.30;;;6.23;;
4831;SDS011;2430;51.322;7.864;2023-06-22T10:10:08;8.00;;;6.57;;
4831;SDS011;2430;51.322;7.864;2023-06-22T10:12:35;7.53;;;5.77;;
4831;SDS011;2430;51.322;7.864;2023-06-22T10:15:01;8.73;;;6.27;;
4831;SDS011;2430;51.322;7.864;2023-06-22T10:17:27;9.10;;;6.47;;
4831;SDS011;2430;51.322;7.864;2023-06-22T10:19:54;7.57;;;5.80;;
4831;SDS011;2430;51.322;7.864;2023-06-22T10:22:22;8.17;;;6.10;;
4831;SDS011;2430;51.322;7.864;2023-06-22T10:24:48;7.43;;;6.43;;
4831;SDS011;2430;51.322;7.864;2023-06-22T10:27:15;14.60;;;6.23;;
4831;SDS011;2430;51.322;7.864;2023-06-22T10:29:41;8.77;;;5.97;;
4831;SDS011;2430;51.322;7.864;2023-06-22T10:32:08;6.30;;;5.63;;
4831;SDS011;2430;51.322;7.864;2023-06-22T10:34:34;6.40;;;5.80;;
4831;SDS011;2430;51.322;7.864;2023-06-22T10:37:01;8.63;;;6.67;;
4831;SDS011;2430;51.322;7.864;2023-06-22T10:39:28;5.80;;;5.20;;
4831;SDS011;2430;51.322;7.864;2023-06-22T10:41:55;6.50;;;5.90;;
4831;SDS011;2430;51.322;7.864;2023-06-22T10:44:22;6.80;;;5.60;;
4831;SDS011;2430;51.322;7.864;2023-06-22T10:46:51;6.97;;;6.20;;
4831;SDS011;2430;51.322;7.864;2023-06-22T10:49:17;7.93;;;6.27;;
4831;SDS011;2430;51.322;7.864;2023-06-22T10:51:44;9.30;;;6.30;;
4831;SDS011;2430;51.322;7.864;2023-06-22T10:54:10;6.97;;;5.87;;
4831;SDS011;2430;51.322;7.864;2023-06-22T10:56:40;7.57;;;6.23;;
4831;SDS011;2430;51.322;7.864;2023-06-22T10:59:06;6.43;;;5.60;;
4831;SDS011;2430;51.322;7.864;2023-06-22T11:01:32;7.07;;;5.60;;
4831;SDS011;2430;51.322;7.864;2023-06-22T11:03:59;6.60;;;5.90;;
4831;SDS011;2430;51.322;7.864;2023-06-22T11:06:25;6.10;;;5.50;;
4831;SDS011;2430;51.322;7.864;2023-06-22T11:08:52;6.67;;;5.70;;
4831;SDS011;2430;51.322;7.864;2023-06-22T11:11:18;7.23;;;6.30;;
4831;SDS011;2430;51.322;7.864;2023-06-22T11:13:46;7.20;;;6.00;;
4831;SDS011;2430;51.322;7.864;2023-06-22T11:16:12;10.83;;;5.90;;
4831;SDS011;2430;51.322;7.864;2023-06-22T11:18:38;9.93;;;6.47;;
4831;SDS011;2430;51.322;7.864;2023-06-22T11:21:05;7.90;;;5.83;;
4831;SDS011;2430;51.322;7.864;2023-06-22T11:23:31;11.00;;;6.10;;
4831;SDS011;2430;51.322;7.864;2023-06-22T11:25:57;10.00;;;5.33;;
4831;SDS011;2430;51.322;7.864;2023-06-22T11:28:23;6.63;;;6.03;;
4831;SDS011;2430;51.322;7.864;2023-06-22T11:30:51;6.77;;;6.07;;
4831;SDS011;2430;51.322;7.864;2023-06-22T11:33:18;7.40;;;6.10;;
4831;SDS011;2430;51.322;7.864;2023-06-22T11:35:44;9.60;;;6.30;;
4831;SDS011;2430;51.322;7.864;2023-06-22T11:38:11;8.17;;;6.60;;
4831;SDS011;2430;51.322;7.864;2023-06-22T11:40:37;8.23;;;6.77;;
4831;SDS011;2430;51.322;7.864;2023-06-22T11:43:03;7.23;;;6.53;;
4831;SDS011;2430;51.322;7.864;2023-06-22T11:45:29;7.30;;;6.30;;
4831;SDS011;2430;51.322;7.864;2023-06-22T11:47:57;7.63;;;6.70;;
4831;SDS011;2430;51.322;7.864;2023-06-22T11:50:23;10.30;;;7.50;;
4831;SDS011;2430;51.322;7.864;2023-06-22T11:52:50;10.50;;;7.00;;
4831;SDS011;2430;51.322;7.864;2023-06-22T11:55:18;7.57;;;6.63;;
4831;SDS011;2430;51.322;7.864;2023-06-22T11:57:51;8.90;;;6.80;;
4831;SDS011;2430;51.322;7.864;2023-06-22T12:00:18;8.07;;;7.27;;
4831;SDS011;2430;51.322;7.864;2023-06-22T12:02:45;8.43;;;7.10;;
4831;SDS011;2430;51.322;7.864;2023-06-22T12:05:13;9.43;;;7.57;;
4831;SDS011;2430;51.322;7.864;2023-06-22T12:07:40;11.00;;;7.77;;
4831;SDS011;2430;51.322;7.864;2023-06-22T12:10:06;26.70;;;9.17;;
4831;SDS011;2430;51.322;7.864;2023-06-22T12:12:33;12.27;;;8.53;;
4831;SDS011;2430;51.322;7.864;2023-06-22T12:14:59;12.70;;;8.67;;
4831;SDS011;2430;51.322;7.864;2023-06-22T12:17:28;15.53;;;10.00;;
4831;SDS011;2430;51.322;7.864;2023-06-22T12:19:55;11.93;;;9.40;;
4831;SDS011;2430;51.322;7.864;2023-06-22T12:22:23;17.47;;;10.67;;
4831;SDS011;2430;51.322;7.864;2023-06-22T12:24:49;16.07;;;10.40;;
4831;SDS011;2430;51.322;7.864;2023-06-22T12:27:16;13.07;;;10.37;;
4831;SDS011;2430;51.322;7.864;2023-06-22T12:29:43;18.07;;;9.67;;
4831;SDS011;2430;51.322;7.864;2023-06-22T12:32:09;13.93;;;9.80;;
4831;SDS011;2430;51.322;7.864;2023-06-22T12:34:38;19.83;;;10.80;;
4831;SDS011;2430;51.322;7.864;2023-06-22T12:37:04;14.33;;;9.70;;
4831;SDS011;2430;51.322;7.864;2023-06-22T12:39:32;11.70;;;9.57;;
4831;SDS011;2430;51.322;7.864;2023-06-22T12:41:58;16.13;;;10.47;;
4831;SDS011;2430;51.322;7.864;2023-06-22T12:44:25;18.30;;;9.87;;
4831;SDS011;2430;51.322;7.864;2023-06-22T12:46:54;11.93;;;8.77;;
4831;SDS011;2430;51.322;7.864;2023-06-22T12:49:20;10.70;;;9.40;;
4831;SDS011;2430;51.322;7.864;2023-06-22T12:51:50;14.30;;;10.20;;
4831;SDS011;2430;51.322;7.864;2023-06-22T12:54:16;13.67;;;9.60;;
4831;SDS011;2430;51.322;7.864;2023-06-22T12:56:44;10.37;;;9.30;;
4831;SDS011;2430;51.322;7.864;2023-06-22T12:59:10;13.23;;;10.80;;
4831;SDS011;2430;51.322;7.864;2023-06-22T13:01:37;14.53;;;11.07;;
4831;SDS011;2430;51.322;7.864;2023-06-22T13:04:03;11.70;;;10.17;;
4831;SDS011;2430;51.322;7.864;2023-06-22T13:06:30;12.20;;;10.30;;
4831;SDS011;2430;51.322;7.864;2023-06-22T13:08:57;13.43;;;10.90;;
4831;SDS011;2430;51.322;7.864;2023-06-22T13:11:23;14.97;;;9.40;;
4831;SDS011;2430;51.322;7.864;2023-06-22T13:13:51;12.43;;;10.37;;
4831;SDS011;2430;51.322;7.864;2023-06-22T13:16:17;14.17;;;10.30;;
4831;SDS011;2430;51.322;7.864;2023-06-22T13:18:43;15.87;;;10.40;;
4831;SDS011;2430;51.322;7.864;2023-06-22T13:21:10;12.80;;;9.63;;
4831;SDS011;2430;51.322;7.864;2023-06-22T13:23:36;13.17;;;8.23;;
4831;SDS011;2430;51.322;7.864;2023-06-22T13:26:02;12.53;;;8.60;;
4831;SDS011;2430;51.322;7.864;2023-06-22T13:28:29;10.43;;;8.20;;
4831;SDS011;2430;51.322;7.864;2023-06-22T13:30:56;9.13;;;6.60;;
4831;SDS011;2430;51.322;7.864;2023-06-22T13:33:23;7.30;;;5.60;;
4831;SDS011;2430;51.322;7.864;2023-06-22T13:35:49;6.53;;;4.80;;
4831;SDS011;2430;51.322;7.864;2023-06-22T13:38:15;6.03;;;4.63;;
4831;SDS011;2430;51.322;7.864;2023-06-22T13:40:42;6.27;;;4.07;;
4831;SDS011;2430;51.322;7.864;2023-06-22T13:43:08;4.10;;;3.70;;
4831;SDS011;2430;51.322;7.864;2023-06-22T13:45:35;7.17;;;4.83;;
4831;SDS011;2430;51.322;7.864;2023-06-22T13:48:03;5.07;;;4.57;;
4831;SDS011;2430;51.322;7.864;2023-06-22T13:50:29;4.70;;;4.17;;
4831;SDS011;2430;51.322;7.864;2023-06-22T13:52:55;4.40;;;4.00;;
4831;SDS011;2430;51.322;7.864;2023-06-22T13:55:22;3.83;;;3.43;;
4831;SDS011;2430;51.322;7.864;2023-06-22T13:57:48;5.20;;;3.93;;
4831;SDS011;2430;51.322;7.864;2023-06-22T14:00:16;5.90;;;4.10;;
4831;SDS011;2430;51.322;7.864;2023-06-22T14:02:42;6.13;;;5.53;;
4831;SDS011;2430;51.322;7.864;2023-06-22T14:05:10;3.97;;;3.23;;
4831;SDS011;2430;51.322;7.864;2023-06-22T14:07:37;3.80;;;3.40;;
4831;SDS011;2430;51.322;7.864;2023-06-22T14:10:03;4.13;;;3.73;;
4831;SDS011;2430;51.322;7.864;2023-06-22T14:12:30;4.13;;;3.73;;
4831;SDS011;2430;51.322;7.864;2023-06-22T14:14:56;4.00;;;3.60;;
4831;SDS011;2430;51.322;7.864;2023-06-22T14:17:23;5.53;;;4.33;;
4831;SDS011;2430;51.322;7.864;2023-06-22T14:19:51;4.57;;;4.13;;
4831;SDS011;2430;51.322;7.864;2023-06-22T14:22:19;6.70;;;4.73;;
4831;SDS011;2430;51.322;7.864;2023-06-22T14:24:45;5.20;;;4.43;;
4831;SDS011;2430;51.322;7.864;2023-06-22T14:27:12;5.60;;;4.07;;
4831;SDS011;2430;51.322;7.864;2023-06-22T14:29:38;4.80;;;3.70;;
4831;SDS011;2430;51.322;7.864;2023-06-22T14:32:05;3.10;;;2.80;;
4831;SDS011;2430;51.322;7.864;2023-06-22T14:34:31;4.37;;;3.20;;
4831;SDS011;2430;51.322;7.864;2023-06-22T14:37:00;4.10;;;3.30;;
4831;SDS011;2430;51.322;7.864;2023-06-22T14:39:28;3.63;;;3.10;;
4831;SDS011;2430;51.322;7.864;2023-06-22T14:41:55;4.00;;;3.33;;
4831;SDS011;2430;51.322;7.864;2023-06-22T14:44:21;6.23;;;3.50;;
4831;SDS011;2430;51.322;7.864;2023-06-22T14:46:48;4.77;;;3.50;;
4831;SDS011;2430;51.322;7.864;2023-06-22T14:49:14;6.90;;;5.57;;
4831;SDS011;2430;51.322;7.864;2023-06-22T14:51:40;6.33;;;4.20;;
4831;SDS011;2430;51.322;7.864;2023-06-22T14:54:07;5.50;;;4.80;;
4831;SDS011;2430;51.322;7.864;2023-06-22T14:56:35;4.93;;;4.40;;
4831;SDS011;2430;51.322;7.864;2023-06-22T14:59:01;4.83;;;4.33;;
4831;SDS011;2430;51.322;7.864;2023-06-22T15:01:27;6.50;;;5.43;;
4831;SDS011;2430;51.322;7.864;2023-06-22T15:03:54;7.63;;;4.93;;